Time;durP1;ratioP1;P1;durP2;ratioP2;P2;SDS_P1;SDS_P2;PMS_P1;PMS_P2;Temp;Humidity;BMP_temperature;BMP_pressure;BME280_temperature;BME280_humidity;BME280_pressure;Samples;Min_cycle;Max_cycle;Signal;HPM_P1;HPM_P2
2022/12/03 00:00:30;;;;;;;6.43;5.70;;;21.30;77.40;;;;;;4989108;28;20923;-86
2022/12/03 00:03:00;;;;;;;6.20;5.27;;;21.30;77.50;;;;;;4995191;28;20452;-85
2022/12/03 00:05:27;;;;;;;6.83;5.93;;;21.30;77.90;;;;;;5002087;28;20495;-85
2022/12/03 00:07:54;;;;;;;8.83;6.20;;;21.30;77.50;;;;;;4996899;28;20475;-84
2022/12/03 00:10:22;;;;;;;7.70;6.57;;;21.40;77.80;;;;;;4995994;28;20452;-86
2022/12/03 00:12:49;;;;;;;7.47;6.10;;;21.40;77.60;;;;;;4991337;28;20462;-85
2022/12/03 00:15:16;;;;;;;7.30;6.60;;;21.30;77.50;;;;;;4990177;28;20488;-85
2022/12/03 00:17:42;;;;;;;7.13;6.17;;;21.30;77.60;;;;;;4995449;28;20887;-85
2022/12/03 00:20:17;;;;;;;6.87;5.40;;;21.30;77.50;;;;;;4993480;28;20543;-84
2022/12/03 00:22:44;;;;;;;8.93;7.20;;;21.30;78.00;;;;;;4991726;28;20488;-84
2022/12/03 00:25:11;;;;;;;7.37;6.10;;;21.30;77.80;;;;;;4991632;28;20982;-84
2022/12/03 00:27:39;;;;;;;7.57;5.97;;;21.30;77.60;;;;;;4997496;28;20472;-84
2022/12/03 00:30:07;;;;;;;8.47;6.37;;;21.30;77.80;;;;;;4986311;28;20475;-85
2022/12/03 00:32:34;;;;;;;7.35;5.93;;;21.30;77.60;;;;;;4987879;28;20820;-80
2022/12/03 00:35:00;;;;;;;6.63;6.03;;;21.20;77.80;;;;;;4984773;28;20589;-82
2022/12/03 00:37:27;;;;;;;7.97;5.87;;;21.10;78.20;;;;;;4993837;28;20455;-83
2022/12/03 00:39:54;;;;;;;5.93;5.37;;;21.10;78.30;;;;;;4984482;28;20828;-80
2022/12/03 00:42:20;;;;;;;10.33;6.00;;;21.20;78.00;;;;;;4992387;28;20448;-78
2022/12/03 00:44:49;;;;;;;9.60;6.50;;;21.20;78.00;;;;;;4991891;28;20479;-81
2022/12/03 00:47:15;;;;;;;9.30;6.63;;;21.30;78.30;;;;;;4993142;28;20210;-80
2022/12/03 00:49:42;;;;;;;7.35;5.43;;;21.30;77.90;;;;;;4991812;28;20828;-81
2022/12/03 00:52:09;;;;;;;11.77;5.80;;;21.30;77.80;;;;;;5004899;28;20177;-80
2022/12/03 00:54:35;;;;;;;6.30;4.87;;;21.40;77.80;;;;;;4994248;28;20796;-81
2022/12/03 01:03:47;;;;;;;5.90;4.95;;;21.40;77.40;;;;;;4993378;28;20526;-82
2022/12/03 01:06:14;;;;;;;5.63;5.13;;;21.40;77.30;;;;;;4994030;28;20202;-81
2022/12/03 01:08:41;;;;;;;8.67;5.03;;;21.40;77.40;;;;;;4993889;28;20464;-81
2022/12/03 01:11:36;;;;;;;8.03;5.10;;;21.40;77.30;;;;;;4992855;28;20471;-81
2022/12/03 01:13:55;;;;;;;8.27;4.90;;;21.40;77.30;;;;;;4989275;28;20864;-80
2022/12/03 01:16:21;;;;;;;6.47;5.43;;;21.30;77.30;;;;;;5003640;28;20487;-80
2022/12/03 01:18:51;;;;;;;5.50;4.70;;;21.40;77.10;;;;;;4986202;28;20891;-80
2022/12/03 01:21:18;;;;;;;5.57;5.00;;;21.30;77.00;;;;;;5002499;28;20488;-80
2022/12/03 01:23:44;;;;;;;8.03;5.83;;;21.30;76.90;;;;;;4994468;28;20439;-81
2022/12/03 01:26:11;;;;;;;6.63;4.73;;;21.30;76.90;;;;;;4992925;28;20487;-80
2022/12/03 01:28:38;;;;;;;6.20;5.60;;;21.20;77.00;;;;;;4994500;28;20809;-81
2022/12/03 01:33:50;;;;;;;7.07;5.45;;;21.30;77.30;;;;;;4995710;28;21054;-84
2022/12/03 01:36:17;;;;;;;5.80;5.10;;;21.30;77.20;;;;;;4999075;28;20290;-83
2022/12/03 01:38:43;;;;;;;6.40;5.25;;;21.30;77.10;;;;;;4990851;28;20460;-80
2022/12/03 01:41:10;;;;;;;5.90;5.40;;;21.30;77.10;;;;;;4993470;28;20208;-81
2022/12/03 01:43:37;;;;;;;5.75;4.70;;;21.30;77.00;;;;;;4988234;28;21016;-80
2022/12/03 01:46:04;;;;;;;5.03;4.53;;;21.40;77.00;;;;;;4994511;28;20242;-81
2022/12/03 01:48:34;;;;;;;6.03;4.93;;;21.40;76.90;;;;;;5003341;28;20822;-82
2022/12/03 01:51:02;;;;;;;6.90;4.95;;;21.40;76.80;;;;;;5001150;28;20519;-82
2022/12/03 01:53:29;;;;;;;6.70;5.63;;;21.30;76.70;;;;;;4993213;28;20207;-81
2022/12/03 01:55:56;;;;;;;4.77;4.30;;;21.30;76.70;;;;;;4983558;28;20992;-80
2022/12/03 01:58:26;;;;;;;5.80;5.20;;;21.30;76.70;;;;;;4987782;28;20459;-80
2022/12/03 02:00:53;;;;;;;5.50;4.50;;;21.20;76.50;;;;;;4985505;28;20470;-81
2022/12/03 02:03:23;;;;;;;6.00;5.00;;;21.20;76.70;;;;;;4987483;28;20563;-82
2022/12/03 02:05:51;;;;;;;5.70;4.97;;;21.10;76.70;;;;;;4990267;28;20456;-81
2022/12/03 02:08:31;;;;;;;4.50;4.07;;;21.10;76.90;;;;;;4987158;28;20456;-79
2022/12/03 02:10:58;;;;;;;7.10;5.10;;;21.10;77.30;;;;;;4987871;28;20946;-79
2022/12/03 02:13:25;;;;;;;4.50;4.10;;;21.20;76.90;;;;;;4990072;28;20185;-81
2022/12/03 02:15:52;;;;;;;5.37;4.87;;;21.20;76.90;;;;;;4996680;28;21008;-79
2022/12/03 02:18:19;;;;;;;4.70;4.30;;;21.30;76.90;;;;;;4987686;28;20464;-80
2022/12/03 02:20:54;;;;;;;6.03;4.78;;;21.30;76.80;;;;;;4996273;28;20460;-81
2022/12/03 02:23:28;;;;;;;4.93;4.40;;;21.30;76.70;;;;;;5001833;28;20200;-80
2022/12/03 02:25:56;;;;;;;5.50;4.97;;;21.30;76.60;;;;;;4993734;28;20460;-79
2022/12/03 02:28:23;;;;;;;5.90;4.57;;;21.30;76.40;;;;;;5001648;28;20963;-80
2022/12/03 02:30:50;;;;;;;5.60;4.50;;;21.30;76.60;;;;;;4993495;28;20228;-79
2022/12/03 02:33:17;;;;;;;4.80;4.10;;;21.30;76.60;;;;;;5004519;28;20475;-80
2022/12/03 02:35:44;;;;;;;5.57;4.30;;;21.30;76.40;;;;;;5005867;28;20216;-81
2022/12/03 02:38:15;;;;;;;5.50;5.00;;;21.30;76.40;;;;;;4996832;28;20460;-79
2022/12/03 02:40:43;;;;;;;4.97;4.07;;;21.30;76.40;;;;;;5009137;28;20462;-80
2022/12/03 02:43:13;;;;;;;4.90;4.30;;;21.30;76.20;;;;;;4988123;28;20456;-80
2022/12/03 02:45:43;;;;;;;4.77;4.37;;;21.30;76.30;;;;;;4995721;28;20444;-80
2022/12/03 02:48:12;;;;;;;4.60;4.20;;;21.30;76.60;;;;;;4987944;28;20481;-81
2022/12/03 02:50:42;;;;;;;5.70;4.80;;;21.30;76.50;;;;;;4999654;28;20456;-81
2022/12/03 02:53:13;;;;;;;5.85;5.00;;;21.30;76.40;;;;;;5006751;28;20459;-80
2022/12/03 02:55:41;;;;;;;6.57;4.60;;;21.30;76.30;;;;;;4986898;28;20213;-82
2022/12/03 02:58:08;;;;;;;4.80;4.30;;;21.30;76.30;;;;;;4988732;28;20456;-79
2022/12/03 03:00:36;;;;;;;5.43;4.93;;;21.30;76.20;;;;;;4995151;28;20456;-80
2022/12/03 03:03:05;;;;;;;4.70;4.30;;;21.30;76.20;;;;;;4993615;28;20985;-81
2022/12/03 03:05:33;;;;;;;4.80;3.70;;;21.30;76.20;;;;;;4997816;28;20800;-82
2022/12/03 03:08:01;;;;;;;4.70;3.83;;;21.30;76.20;;;;;;4999179;28;20612;-81
2022/12/03 03:10:29;;;;;;;4.67;4.27;;;21.30;76.20;;;;;;4994773;28;20551;-81
2022/12/03 03:12:56;;;;;;;4.87;3.87;;;21.40;76.10;;;;;;4986362;28;20785;-80
2022/12/03 03:15:24;;;;;;;4.37;3.97;;;21.30;75.90;;;;;;4993633;28;20483;-80
2022/12/03 03:17:52;;;;;;;4.70;4.23;;;21.30;75.90;;;;;;4999597;28;20464;-81
2022/12/03 03:20:19;;;;;;;6.13;4.90;;;21.30;75.70;;;;;;4991016;28;20468;-81
2022/12/03 03:22:46;;;;;;;4.40;4.00;;;21.30;76.50;;;;;;4995899;28;20460;-80
2022/12/03 03:25:17;;;;;;;5.07;4.53;;;21.20;76.00;;;;;;4995707;28;20458;-80
2022/12/03 03:27:46;;;;;;;5.03;4.63;;;21.30;76.20;;;;;;4991429;28;20461;-81
2022/12/03 03:30:14;;;;;;;5.17;4.67;;;21.30;76.10;;;;;;4994180;28;20463;-81
2022/12/03 03:32:41;;;;;;;4.43;4.00;;;21.30;76.00;;;;;;4993124;28;21014;-80
2022/12/03 03:35:12;;;;;;;4.50;4.10;;;21.30;76.00;;;;;;4993399;28;20452;-80
2022/12/03 03:37:39;;;;;;;4.60;3.90;;;21.30;76.10;;;;;;5002997;28;20452;-80
2022/12/03 03:40:08;;;;;;;5.10;4.60;;;21.20;76.10;;;;;;4984051;28;20523;-80
2022/12/03 03:42:35;;;;;;;4.13;3.73;;;21.30;76.00;;;;;;4992072;28;20464;-80
2022/12/03 03:45:02;;;;;;;5.33;4.13;;;21.30;76.10;;;;;;4993378;28;20452;-80
2022/12/03 03:47:29;;;;;;;4.10;3.60;;;21.30;75.90;;;;;;4983401;28;20464;-81
2022/12/03 03:49:55;;;;;;;7.17;3.83;;;21.30;76.00;;;;;;4995811;28;20542;-81
2022/12/03 03:52:24;;;;;;;4.27;3.87;;;21.30;75.90;;;;;;4993643;28;20471;-81
2022/12/03 03:54:51;;;;;;;5.10;4.10;;;21.20;75.60;;;;;;4992380;28;20459;-81
2022/12/03 03:57:17;;;;;;;4.20;3.57;;;21.20;75.90;;;;;;4979203;28;21007;-81
2022/12/03 04:03:06;;;;;;;4.07;3.77;;;21.20;75.80;;;;;;4986633;28;20466;-82
2022/12/03 04:05:33;;;;;;;4.47;4.07;;;21.30;75.80;;;;;;4999755;28;20459;-81
2022/12/03 04:08:01;;;;;;;4.75;4.35;;;21.30;75.90;;;;;;4988453;28;20956;-81
2022/12/03 04:13:12;;;;;;;5.70;4.30;;;21.20;75.40;;;;;;4999928;28;20462;-82
2022/12/03 04:15:39;;;;;;;5.97;4.03;;;21.20;75.60;;;;;;4995405;28;20484;-82
2022/12/03 04:20:50;;;;;;;4.60;4.03;;;21.00;75.70;;;;;;4992106;28;20570;-81
2022/12/03 04:23:17;;;;;;;4.30;3.45;;;21.00;76.00;;;;;;5002339;28;20947;-81
2022/12/03 04:36:40;;;;;;;4.53;4.03;;;21.10;76.20;;;;;;4996077;28;20471;-82
2022/12/03 04:39:08;;;;;;;4.60;3.75;;;21.10;76.10;;;;;;4992895;28;20464;-82
2022/12/03 04:41:35;;;;;;;4.20;3.90;;;21.20;76.00;;;;;;4987797;28;20212;-81
2022/12/03 04:46:46;;;;;;;3.90;3.50;;;21.20;75.80;;;;;;4992395;28;20451;-81
2022/12/03 04:49:12;;;;;;;4.22;3.85;;;21.30;75.80;;;;;;4990438;28;20479;-81
2022/12/03 04:51:39;;;;;;;3.15;2.95;;;21.30;75.70;;;;;;4986733;28;20213;-81
2022/12/03 04:54:07;;;;;;;4.70;3.37;;;21.30;75.40;;;;;;4981222;28;20692;-81
2022/12/03 04:56:34;;;;;;;4.10;3.60;;;21.30;75.60;;;;;;4978135;28;20477;-81
2022/12/03 04:59:01;;;;;;;3.20;2.70;;;21.30;75.50;;;;;;4981829;28;20459;-81
2022/12/03 05:01:28;;;;;;;4.60;4.20;;;21.30;75.50;;;;;;4986044;28;20931;-82
2022/12/03 05:03:54;;;;;;;4.13;3.73;;;21.20;75.60;;;;;;4993624;28;20963;-82
2022/12/03 05:06:21;;;;;;;3.70;3.40;;;21.20;75.70;;;;;;4989453;28;20855;-81
2022/12/03 05:08:48;;;;;;;4.23;3.80;;;21.30;75.60;;;;;;4999846;28;20468;-81
2022/12/03 05:11:19;;;;;;;4.00;3.37;;;21.30;75.60;;;;;;4992553;28;20455;-82
2022/12/03 05:13:45;;;;;;;3.73;2.93;;;21.30;75.50;;;;;;4990889;28;21008;-82
2022/12/03 05:16:12;;;;;;;3.80;3.50;;;21.30;75.30;;;;;;4986289;28;20487;-81
2022/12/03 05:18:39;;;;;;;4.15;3.42;;;21.30;75.30;;;;;;4984021;28;20460;-80
2022/12/03 05:21:08;;;;;;;4.70;4.30;;;21.40;75.40;;;;;;4985608;28;20208;-81
2022/12/03 05:23:35;;;;;;;3.47;3.17;;;21.40;75.20;;;;;;4998622;28;20466;-81
2022/12/03 05:26:02;;;;;;;4.53;3.80;;;21.50;75.00;;;;;;4989352;28;20806;-81
2022/12/03 05:28:30;;;;;;;4.70;4.20;;;21.50;75.00;;;;;;4990132;28;20947;-83
2022/12/03 05:30:57;;;;;;;3.57;3.27;;;21.50;74.90;;;;;;4984997;28;20842;-82
2022/12/03 05:33:24;;;;;;;3.83;3.43;;;21.50;74.80;;;;;;4990392;28;20468;-82
2022/12/03 05:35:50;;;;;;;3.47;3.17;;;21.50;74.80;;;;;;4994858;28;20455;-82
2022/12/03 05:38:17;;;;;;;3.97;3.50;;;21.60;74.90;;;;;;4996583;28;20468;-82
2022/12/03 05:40:44;;;;;;;4.10;3.60;;;21.60;74.80;;;;;;4984863;28;20488;-83
2022/12/03 05:43:10;;;;;;;4.40;3.47;;;21.60;74.60;;;;;;4979271;28;21187;-82
2022/12/03 05:45:40;;;;;;;3.90;3.60;;;21.60;74.90;;;;;;4987051;28;20457;-82
2022/12/03 05:48:09;;;;;;;3.80;3.47;;;21.60;74.90;;;;;;4994207;28;20702;-82
2022/12/03 05:50:38;;;;;;;4.00;3.70;;;21.50;74.90;;;;;;4982439;28;20472;-83
2022/12/03 05:53:05;;;;;;;3.87;3.43;;;21.50;75.00;;;;;;4996612;28;20980;-82
2022/12/03 05:55:32;;;;;;;4.30;3.90;;;21.50;75.10;;;;;;4993919;28;20540;-82
2022/12/03 05:57:59;;;;;;;4.27;3.50;;;21.40;75.00;;;;;;5004125;28;20450;-82
2022/12/03 06:00:27;;;;;;;4.00;3.60;;;21.40;75.10;;;;;;4989891;28;21071;-82
2022/12/03 06:02:56;;;;;;;4.43;3.97;;;21.40;75.20;;;;;;4987933;28;20487;-82
2022/12/03 06:05:24;;;;;;;5.53;4.07;;;21.40;75.30;;;;;;5004967;28;20462;-82
2022/12/03 06:07:52;;;;;;;4.30;3.87;;;21.40;75.20;;;;;;4998875;28;20823;-82
2022/12/03 06:10:21;;;;;;;4.70;3.90;;;21.40;75.20;;;;;;4996034;28;20455;-82
2022/12/03 06:12:48;;;;;;;4.00;3.60;;;21.40;75.20;;;;;;4990649;28;20475;-81
2022/12/03 06:15:15;;;;;;;4.00;3.40;;;21.40;75.20;;;;;;4987950;28;20483;-82
2022/12/03 06:17:42;;;;;;;3.50;3.20;;;21.30;75.20;;;;;;4990790;28;20477;-82
2022/12/03 06:20:14;;;;;;;3.37;3.07;;;21.30;75.20;;;;;;4988367;28;20828;-82
2022/12/03 06:22:40;;;;;;;3.40;3.10;;;21.30;75.30;;;;;;4996257;28;20451;-82
2022/12/03 06:25:08;;;;;;;4.10;3.80;;;21.30;75.20;;;;;;4999493;28;20460;-81
2022/12/03 06:27:35;;;;;;;3.97;3.47;;;21.30;75.30;;;;;;4994890;28;20476;-82
2022/12/03 06:30:02;;;;;;;4.10;3.50;;;21.30;75.20;;;;;;4991606;28;20469;-82
2022/12/03 06:32:28;;;;;;;3.53;3.23;;;21.30;75.20;;;;;;4987702;28;20530;-81
2022/12/03 06:34:55;;;;;;;5.77;3.57;;;21.30;75.20;;;;;;4997199;28;20499;-82
2022/12/03 06:37:23;;;;;;;3.73;3.43;;;21.30;75.20;;;;;;4992927;28;20483;-82
2022/12/03 06:39:50;;;;;;;4.20;3.20;;;21.30;75.20;;;;;;4984618;28;20981;-83
2022/12/03 06:42:16;;;;;;;4.00;3.60;;;21.30;75.20;;;;;;4985722;28;20463;-82
2022/12/03 06:44:43;;;;;;;4.57;3.43;;;21.30;75.20;;;;;;4993780;28;20460;-82
2022/12/03 06:47:10;;;;;;;4.30;3.70;;;21.30;75.20;;;;;;4990794;28;20460;-81
2022/12/03 06:49:37;;;;;;;4.30;2.97;;;21.40;75.10;;;;;;4993534;28;20855;-81
2022/12/03 06:52:03;;;;;;;4.83;4.20;;;21.40;75.10;;;;;;4993502;28;20977;-81
2022/12/03 06:54:32;;;;;;;3.67;3.33;;;21.30;75.10;;;;;;5000133;28;20431;-83
2022/12/03 06:56:59;;;;;;;3.27;2.83;;;21.30;75.10;;;;;;4998195;28;20478;-81
2022/12/03 06:59:25;;;;;;;3.77;3.37;;;21.40;75.20;;;;;;4991354;28;20970;-83
2022/12/03 07:01:52;;;;;;;3.43;3.13;;;21.40;75.20;;;;;;4996577;28;20938;-80
2022/12/03 07:04:19;;;;;;;3.73;3.43;;;21.40;75.10;;;;;;4994419;28;20925;-81
2022/12/03 07:06:46;;;;;;;3.07;2.77;;;21.40;75.00;;;;;;4990056;28;20459;-80
2022/12/03 07:09:15;;;;;;;3.27;2.80;;;21.40;75.10;;;;;;5000945;28;20974;-81
2022/12/03 07:11:43;;;;;;;3.93;3.57;;;21.40;75.00;;;;;;4994269;28;20464;-80
2022/12/03 07:14:11;;;;;;;3.13;2.93;;;21.40;75.00;;;;;;4981162;28;20456;-80
2022/12/03 07:16:38;;;;;;;3.43;3.00;;;21.40;75.00;;;;;;4994539;28;20495;-81
2022/12/03 07:19:05;;;;;;;3.63;3.33;;;21.40;75.00;;;;;;4988595;28;20456;-80
2022/12/03 07:21:32;;;;;;;3.57;3.20;;;21.40;75.10;;;;;;4981953;28;20457;-80
2022/12/03 07:23:59;;;;;;;4.00;3.37;;;21.40;75.10;;;;;;4991503;28;20455;-81
2022/12/03 07:26:25;;;;;;;3.10;2.80;;;21.40;75.00;;;;;;4994317;28;20461;-81
2022/12/03 07:28:54;;;;;;;3.30;2.67;;;21.30;75.00;;;;;;4997770;28;20456;-79
2022/12/03 07:31:20;;;;;;;3.80;3.43;;;21.30;75.00;;;;;;4994958;28;20479;-79
2022/12/03 07:33:47;;;;;;;4.13;3.73;;;21.30;75.00;;;;;;4993988;28;20444;-80
2022/12/03 07:36:14;;;;;;;3.07;2.83;;;21.30;75.00;;;;;;4992307;28;20483;-80
2022/12/03 07:38:41;;;;;;;3.63;3.00;;;21.30;75.00;;;;;;4988005;28;20467;-80
2022/12/03 07:41:08;;;;;;;3.13;2.83;;;21.30;75.00;;;;;;4991211;28;20483;-79
2022/12/03 07:46:57;;;;;;;3.50;3.20;;;21.30;75.10;;;;;;4981307;28;20856;-80
2022/12/03 07:49:25;;;;;;;3.63;3.33;;;21.30;75.10;;;;;;4997873;28;20499;-80
2022/12/03 07:51:53;;;;;;;3.23;2.90;;;21.30;75.20;;;;;;4984945;28;20455;-81
2022/12/03 07:54:20;;;;;;;3.80;3.50;;;21.30;75.10;;;;;;4988484;28;20448;-80
2022/12/03 07:56:47;;;;;;;3.57;3.20;;;21.30;75.20;;;;;;4993680;28;20491;-80
2022/12/03 07:59:14;;;;;;;3.70;3.17;;;21.30;75.10;;;;;;4989663;28;20495;-80
2022/12/03 08:01:41;;;;;;;5.40;3.60;;;21.20;75.00;;;;;;4985595;28;20460;-80
2022/12/03 08:04:10;;;;;;;3.83;3.47;;;21.30;75.10;;;;;;4997551;28;20459;-80
2022/12/03 08:06:37;;;;;;;3.70;3.40;;;21.20;75.90;;;;;;4997064;28;20456;-80
2022/12/03 08:09:03;;;;;;;3.30;2.70;;;21.20;75.10;;;;;;4991298;28;20470;-80
2022/12/03 08:11:32;;;;;;;4.53;3.50;;;21.20;75.10;;;;;;4987581;28;20467;-80
2022/12/03 08:13:58;;;;;;;3.90;3.37;;;21.20;75.10;;;;;;4997094;28;20978;-80
2022/12/03 08:16:25;;;;;;;3.53;3.17;;;21.20;75.10;;;;;;4984066;28;20495;-80
2022/12/03 08:18:56;;;;;;;3.10;2.37;;;21.20;75.10;;;;;;4997017;28;20451;-80
2022/12/03 08:21:24;;;;;;;3.40;3.10;;;21.20;75.10;;;;;;4989088;28;20459;-81
2022/12/03 08:23:51;;;;;;;3.40;3.10;;;21.20;75.00;;;;;;4986409;28;20456;-80
2022/12/03 08:26:23;;;;;;;3.10;2.80;;;21.20;75.10;;;;;;4998424;28;20451;-80
2022/12/03 08:28:50;;;;;;;3.60;3.30;;;21.20;75.00;;;;;;4997796;28;20455;-80
2022/12/03 08:31:19;;;;;;;3.63;3.33;;;21.20;75.00;;;;;;4991693;28;20456;-81
2022/12/03 08:33:47;;;;;;;3.57;3.00;;;21.20;75.00;;;;;;4990534;28;20460;-80
2022/12/03 08:36:19;;;;;;;3.27;2.97;;;21.20;75.00;;;;;;4989969;28;20460;-79
2022/12/03 08:38:51;;;;;;;3.60;3.30;;;21.20;75.00;;;;;;4991078;28;20454;-81
2022/12/03 08:42:40;;;;;;;5.70;3.07;;;21.20;75.20;;;;;;4987388;28;20460;-81
2022/12/03 08:44:20;;;;;;;3.27;2.90;;;21.20;75.10;;;;;;4986105;28;20522;-80
2022/12/03 08:46:52;;;;;;;3.97;3.27;;;21.20;75.20;;;;;;4988328;28;20454;-80
2022/12/03 08:49:21;;;;;;;6.63;4.40;;;21.20;75.20;;;;;;5000375;28;20456;-80
2022/12/03 08:51:48;;;;;;;4.00;3.57;;;21.20;75.90;;;;;;5000121;28;20958;-82
2022/12/03 08:54:20;;;;;;;5.70;4.33;;;21.10;76.00;;;;;;4993592;28;20451;-80
2022/12/03 08:56:46;;;;;;;21.57;3.30;;;21.00;76.20;;;;;;4981435;28;20484;-82
2022/12/03 08:59:25;;;;;;;8.27;4.63;;;21.10;76.30;;;;;;4982240;28;20471;-77
2022/12/03 09:01:53;;;;;;;9.50;5.73;;;21.10;75.90;;;;;;4980242;28;20547;-82
2022/12/03 09:04:28;;;;;;;9.70;5.40;;;21.00;76.20;;;;;;4993964;28;20455;-81
2022/12/03 09:06:56;;;;;;;16.10;5.27;;;20.90;75.70;;;;;;4999696;28;20200;-78
2022/12/03 09:09:24;;;;;;;8.17;6.70;;;20.90;75.80;;;;;;4981878;28;20994;-78
2022/12/03 09:11:52;;;;;;;7.23;4.53;;;21.00;75.30;;;;;;4978159;28;20452;-81
2022/12/03 09:14:21;;;;;;;10.30;4.60;;;21.00;75.50;;;;;;4983266;28;20929;-81
2022/12/03 09:16:48;;;;;;;9.13;3.97;;;21.10;75.80;;;;;;4980413;28;20966;-81
2022/12/03 09:19:15;;;;;;;5.13;4.63;;;21.20;75.50;;;;;;4985379;28;20460;-81
2022/12/03 09:21:42;;;;;;;4.27;3.70;;;21.20;75.30;;;;;;4998144;28;20940;-81
2022/12/03 09:24:10;;;;;;;4.53;3.80;;;21.30;75.20;;;;;;4995407;28;20444;-81
2022/12/03 09:26:38;;;;;;;7.20;4.30;;;21.30;75.10;;;;;;4985108;28;20546;-81
2022/12/03 09:29:05;;;;;;;5.37;4.23;;;21.40;74.80;;;;;;4987319;28;20843;-81
2022/12/03 09:31:33;;;;;;;4.30;3.77;;;21.40;74.60;;;;;;4997864;28;20995;-81
2022/12/03 09:34:00;;;;;;;5.17;4.03;;;21.50;74.80;;;;;;4996264;28;20431;-81
2022/12/03 09:36:27;;;;;;;6.33;4.00;;;21.50;74.60;;;;;;4992790;28;20583;-81
2022/12/03 09:38:53;;;;;;;7.80;4.40;;;21.50;74.40;;;;;;4996049;28;20460;-82
2022/12/03 09:41:21;;;;;;;6.47;4.10;;;21.50;74.60;;;;;;5002574;28;20464;-82
2022/12/03 09:43:49;;;;;;;7.73;3.77;;;21.40;74.60;;;;;;5006839;28;20812;-81
2022/12/03 09:46:22;;;;;;;7.50;5.37;;;21.50;74.60;;;;;;4998809;28;20483;-81
2022/12/03 09:48:54;;;;;;;7.83;4.23;;;21.40;74.50;;;;;;4997652;28;20944;-82
2022/12/03 09:51:22;;;;;;;4.10;3.67;;;21.40;74.70;;;;;;5002644;28;20513;-82
2022/12/03 09:53:49;;;;;;;8.27;4.30;;;21.40;74.50;;;;;;5010329;28;20467;-81
2022/12/03 09:59:58;;;;;;;3.10;2.90;;;21.40;74.50;;;;;;4997649;28;20420;-81
2022/12/03 10:02:28;;;;;;;4.10;3.20;;;21.40;74.60;;;;;;4982970;28;20463;-81
2022/12/03 10:04:57;;;;;;;5.10;3.63;;;21.40;74.70;;;;;;4993466;28;20471;-81
2022/12/03 10:07:25;;;;;;;4.67;4.27;;;21.40;74.60;;;;;;4989013;28;20452;-82
2022/12/03 10:09:52;;;;;;;4.80;4.40;;;21.30;74.60;;;;;;4994562;28;20468;-82
2022/12/03 10:12:25;;;;;;;3.50;3.20;;;21.30;74.60;;;;;;4995089;28;21717;-83
2022/12/03 10:14:53;;;;;;;3.87;3.53;;;21.30;74.80;;;;;;4994963;28;20452;-81
2022/12/03 10:17:21;;;;;;;3.47;3.17;;;21.20;74.70;;;;;;4993749;28;20986;-81
2022/12/03 10:19:48;;;;;;;5.53;4.23;;;21.20;74.80;;;;;;4996703;28;20463;-81
2022/12/03 10:22:15;;;;;;;3.50;3.20;;;21.20;74.80;;;;;;4988786;28;20462;-81
2022/12/03 10:24:43;;;;;;;3.83;3.53;;;21.20;74.90;;;;;;4984855;28;20468;-81
2022/12/03 10:27:21;;;;;;;5.33;4.20;;;21.20;74.90;;;;;;4993311;28;20452;-81
2022/12/03 10:29:55;;;;;;;4.40;4.00;;;21.20;74.80;;;;;;4987773;28;20967;-81
2022/12/03 10:32:27;;;;;;;5.00;3.53;;;21.30;75.00;;;;;;5003257;28;20467;-81
2022/12/03 10:35:09;;;;;;;4.03;3.00;;;21.20;74.70;;;;;;4991769;28;20467;-81
2022/12/03 10:37:36;;;;;;;4.90;4.23;;;21.20;74.70;;;;;;4992988;28;20455;-81
2022/12/03 10:40:07;;;;;;;4.17;3.70;;;21.20;74.70;;;;;;4995942;28;20468;-81
2022/12/03 10:42:35;;;;;;;4.90;3.80;;;21.20;74.70;;;;;;4994816;28;20448;-81
2022/12/03 10:45:23;;;;;;;3.90;3.60;;;21.20;74.70;;;;;;4984032;28;20991;-81
2022/12/03 10:48:06;;;;;;;4.70;3.07;;;21.30;74.70;;;;;;4977693;28;20975;-75
2022/12/03 10:50:35;;;;;;;4.50;4.10;;;21.30;74.60;;;;;;4985622;28;20467;-74
2022/12/03 10:53:04;;;;;;;6.57;4.10;;;21.10;74.10;;;;;;4968160;28;20519;-80
2022/12/03 10:55:35;;;;;;;11.57;5.07;;;21.00;74.50;;;;;;4982143;28;20464;-80
2022/12/03 10:58:02;;;;;;;5.47;4.87;;;21.10;74.70;;;;;;4989211;28;20483;-80
2022/12/03 11:00:29;;;;;;;6.13;4.20;;;21.10;74.60;;;;;;4984870;28;20947;-80
2022/12/03 11:02:55;;;;;;;5.23;4.73;;;21.20;74.50;;;;;;4984250;28;20460;-80
2022/12/03 11:05:26;;;;;;;7.27;4.10;;;21.20;74.60;;;;;;4986497;28;20824;-80
2022/12/03 11:07:53;;;;;;;7.70;5.60;;;21.30;74.30;;;;;;4994224;28;20451;-80
2022/12/03 11:10:21;;;;;;;6.43;4.37;;;21.20;74.30;;;;;;4991496;28;20479;-81
2022/12/03 11:13:17;;;;;;;9.97;4.93;;;21.20;74.00;;;;;;4992985;28;20459;-81
2022/12/03 11:15:45;;;;;;;11.03;4.70;;;21.20;74.10;;;;;;4981250;28;20594;-81
2022/12/03 11:18:32;;;;;;;15.60;5.30;;;21.10;75.90;;;;;;4995525;28;20491;-81
2022/12/03 11:21:06;;;;;;;11.33;5.27;;;21.00;75.30;;;;;;4992460;28;20464;-81
2022/12/03 11:24:05;;;;;;;14.53;5.30;;;21.10;76.70;;;;;;4997085;28;20458;-77
2022/12/03 11:27:17;;;;;;;15.40;5.83;;;21.10;77.90;;;;;;4996672;28;20970;-74
2022/12/03 11:29:53;;;;;;;19.53;4.70;;;21.00;79.00;;;;;;4997530;28;20464;-81
2022/12/03 11:33:08;;;;;;;18.17;10.25;;;21.00;80.50;;;;;;4989040;28;20835;-87
2022/12/03 11:36:18;;;;;;;20.98;13.80;;;20.50;60.70;;;;;;5003502;28;20207;-88
2022/12/03 11:38:55;;;;;;;15.23;13.13;;;19.90;55.70;;;;;;4991347;28;20312;-87
2022/12/03 11:41:26;;;;;;;23.27;15.93;;;19.30;53.50;;;;;;4993317;28;20189;-87
2022/12/03 11:44:28;;;;;;;21.15;16.15;;;19.00;51.90;;;;;;4987087;28;20654;-88
2022/12/03 11:47:00;;;;;;;22.67;17.15;;;18.70;50.80;;;;;;4989242;28;20227;-87
2022/12/03 11:49:37;;;;;;;23.83;16.23;;;18.70;50.30;;;;;;4993758;28;20600;-83
2022/12/03 11:52:19;;;;;;;19.50;14.70;;;18.30;50.10;;;;;;4989364;28;20365;-84
2022/12/03 11:54:51;;;;;;;16.13;12.65;;;18.60;54.20;;;;;;4993721;28;20212;-88
2022/12/03 11:57:34;;;;;;;14.63;10.95;;;19.20;55.40;;;;;;4994210;28;20648;-88
2022/12/03 12:00:15;;;;;;;11.65;10.45;;;20.00;56.30;;;;;;4991810;28;20538;-89
2022/12/03 12:02:42;;;;;;;12.85;10.40;;;20.50;57.50;;;;;;4983566;28;20324;-90
2022/12/03 12:05:24;;;;;;;12.15;9.77;;;20.80;57.60;;;;;;4991284;28;20200;-91
2022/12/03 12:07:54;;;;;;;12.60;9.00;;;20.90;58.00;;;;;;4992545;28;20208;-91
2022/12/03 12:10:44;;;;;;;14.55;10.38;;;21.00;58.60;;;;;;4994873;28;20656;-88
2022/12/03 12:13:43;;;;;;;9.90;7.90;;;21.10;59.10;;;;;;4997431;28;20208;-86
2022/12/03 12:16:10;;;;;;;11.40;8.75;;;21.20;60.00;;;;;;4986176;28;20224;-87
2022/12/03 12:18:39;;;;;;;11.80;8.35;;;21.30;60.70;;;;;;4991791;28;20217;-86
2022/12/03 12:21:41;;;;;;;9.27;7.82;;;21.40;61.40;;;;;;5002637;28;20193;-86
2022/12/03 12:24:37;;;;;;;10.52;7.82;;;21.40;61.90;;;;;;4992856;28;20196;-88
2022/12/03 12:27:07;;;;;;;12.02;8.43;;;21.40;62.60;;;;;;4988292;28;20201;-87
2022/12/03 12:29:34;;;;;;;12.85;7.40;;;21.40;63.20;;;;;;4994197;28;20189;-88
2022/12/03 12:32:11;;;;;;;11.40;7.95;;;21.40;63.60;;;;;;4996202;28;20224;-88
2022/12/03 12:34:40;;;;;;;9.23;7.18;;;21.40;63.70;;;;;;4991716;28;20208;-86
2022/12/03 12:37:11;;;;;;;7.97;6.50;;;21.30;64.20;;;;;;4992492;28;20665;-86
2022/12/03 12:39:38;;;;;;;10.25;7.57;;;21.30;64.70;;;;;;4991011;28;20209;-84
2022/12/03 12:42:27;;;;;;;7.78;6.93;;;21.30;65.10;;;;;;4990732;28;20205;-84
2022/12/03 12:44:57;;;;;;;8.95;7.43;;;21.20;65.40;;;;;;4981454;28;20215;-86
2022/12/03 12:47:25;;;;;;;13.05;8.75;;;21.20;66.00;;;;;;4996800;28;20204;-85
2022/12/03 12:49:51;;;;;;;7.22;5.90;;;21.10;66.20;;;;;;4993954;28;20204;-86
2022/12/03 12:52:18;;;;;;;9.33;6.90;;;21.10;66.70;;;;;;4992515;28;20224;-87
2022/12/03 12:54:45;;;;;;;7.87;6.47;;;21.20;67.00;;;;;;4988663;28;20468;-86
2022/12/03 12:57:23;;;;;;;7.43;6.10;;;21.10;67.20;;;;;;4992903;28;20469;-87
2022/12/03 12:59:51;;;;;;;8.70;6.40;;;21.10;67.40;;;;;;4990452;28;21915;-87
2022/12/03 13:02:39;;;;;;;7.17;6.03;;;21.20;67.90;;;;;;4994077;28;20456;-87
2022/12/03 13:05:10;;;;;;;8.45;6.45;;;21.20;67.80;;;;;;4990203;28;20985;-86
2022/12/03 13:07:37;;;;;;;7.80;7.00;;;21.30;68.10;;;;;;4993440;28;20661;-87
2022/12/03 13:10:24;;;;;;;7.43;6.70;;;21.30;68.10;;;;;;4998803;28;20204;-87
2022/12/03 13:12:52;;;;;;;7.57;6.80;;;21.30;68.10;;;;;;4992864;28;20664;-85
2022/12/03 13:15:36;;;;;;;7.87;6.53;;;21.30;68.50;;;;;;4987340;28;20498;-85
2022/12/03 13:18:20;;;;;;;9.53;6.17;;;21.30;68.80;;;;;;4993167;28;20680;-85
2022/12/03 13:20:46;;;;;;;8.40;6.47;;;21.30;68.90;;;;;;4992642;28;20440;-83
2022/12/03 13:23:26;;;;;;;12.40;8.93;;;21.30;69.70;;;;;;4990332;28;20672;-87
2022/12/03 13:25:53;;;;;;;10.63;8.70;;;21.20;72.80;;;;;;4986599;28;20998;-84
2022/12/03 13:28:21;;;;;;;11.85;8.98;;;21.20;71.50;;;;;;5003603;28;20460;-86
2022/12/03 13:30:48;;;;;;;13.63;9.10;;;21.20;71.30;;;;;;4996747;28;20264;-86
2022/12/03 13:33:24;;;;;;;11.50;8.20;;;21.20;71.40;;;;;;4990675;28;20474;-85
2022/12/03 13:35:52;;;;;;;9.17;7.20;;;21.30;71.10;;;;;;4997814;28;20463;-85
2022/12/03 13:38:20;;;;;;;8.07;6.88;;;21.40;70.80;;;;;;4988807;28;20743;-86